Time;durP1;ratioP1;P1;durP2;ratioP2;P2;SDS_P1;SDS_P2;PMS_P1;PMS_P2;Temp;Humidity;BMP_temperature;BMP_pressure;BME280_temperature;BME280_humidity;BME280_pressure;Samples;Min_cycle;Max_cycle;Signal;HPM_P1;HPM_P2
2023/12/21 10:40:03;;;;;;;;;87.75;64.25;;;;;;;;5085818;27;13494;-72
2023/12/21 10:42:29;;;;;;;;;75.25;61.25;;;;;;;;5086919;28;8825;-71
2023/12/21 10:44:55;;;;;;;;;82.75;64.25;;;;;;;;5083802;28;8804;-72
2023/12/21 10:47:21;;;;;;;;;88.75;66.25;;;;;;;;5079389;28;8794;-73
2023/12/21 10:49:49;;;;;;;;;73.00;58.25;;;;;;;;5088143;28;8810;-76
2023/12/21 10:52:15;;;;;;;;;85.25;65.75;;;;;;;;5086874;28;8799;-78
2023/12/21 10:54:42;;;;;;;;;81.75;64.50;;;;;;;;5087907;28;8810;-83
2023/12/21 10:57:08;;;;;;;;;83.00;63.25;;;;;;;;5087667;28;9504;-76
2023/12/21 10:59:34;;;;;;;;;83.25;63.75;;;;;;;;5086379;28;8841;-75
2023/12/21 11:02:00;;;;;;;;;84.50;66.25;;;;;;;;5046537;28;9881;-74
2023/12/21 11:04:27;;;;;;;;;77.50;62.00;;;;;;;;5047591;28;8792;-76
2023/12/21 11:06:53;;;;;;;;;81.00;63.67;;;;;;;;5047421;28;8826;-76
2023/12/21 11:09:19;;;;;;;;;80.67;63.67;;;;;;;;5048605;28;8811;-73
2023/12/21 11:11:45;;;;;;;;;83.67;63.67;;;;;;;;5044236;28;8970;-75
2023/12/21 11:14:11;;;;;;;;;79.00;61.00;;;;;;;;5047196;28;8898;-74
2023/12/21 11:16:41;;;;;;;;;85.00;65.67;;;;;;;;5046691;28;8811;-73
2023/12/21 11:19:08;;;;;;;;;78.00;61.33;;;;;;;;5046909;28;8835;-73
2023/12/21 11:21:33;;;;;;;;;83.00;63.67;;;;;;;;5045498;28;8803;-75
2023/12/21 11:23:59;;;;;;;;;82.33;63.67;;;;;;;;5047300;28;8799;-77
2023/12/21 11:26:27;;;;;;;;;78.33;63.00;;;;;;;;5047195;28;8815;-75
2023/12/21 11:29:13;;;;;;;;;76.67;60.00;;;;;;;;5045308;28;8854;-76
2023/12/21 11:31:40;;;;;;;;;49.00;39.00;;;;;;;;5043904;28;8831;-75
2023/12/21 11:34:15;;;;;;;;;81.00;63.33;;;;;;;;5046949;28;8819;-76
2023/12/21 11:36:41;;;;;;;;;80.33;64.00;;;;;;;;5046854;28;8816;-71
2023/12/21 11:39:12;;;;;;;;;82.67;63.67;;;;;;;;5058775;28;8922;-72
2023/12/21 11:41:47;;;;;;;;;81.33;64.67;;;;;;;;5064893;28;8793;-72
2023/12/21 11:44:13;;;;;;;;;83.33;65.33;;;;;;;;5065482;28;8947;-70
2023/12/21 11:46:39;;;;;;;;;80.67;64.00;;;;;;;;5066187;28;8924;-71
2023/12/21 11:49:04;;;;;;;;;78.67;63.00;;;;;;;;5066130;28;8809;-71
2023/12/21 11:51:31;;;;;;;;;84.33;65.33;;;;;;;;5051159;28;8944;-71
2023/12/21 11:54:02;;;;;;;;;81.33;63.67;;;;;;;;5053179;28;8809;-71
2023/12/21 11:56:34;;;;;;;;;85.67;67.00;;;;;;;;5053299;28;8889;-72
2023/12/21 11:59:00;;;;;;;;;85.00;65.33;;;;;;;;5047984;28;8847;-72
2023/12/21 12:01:28;;;;;;;;;84.33;66.33;;;;;;;;5047920;28;9009;-72
2023/12/21 12:03:55;;;;;;;;;84.00;66.00;;;;;;;;5052934;28;8793;-72
2023/12/21 12:06:21;;;;;;;;;83.67;67.00;;;;;;;;5054279;28;8794;-72
2023/12/21 12:08:46;;;;;;;;;85.67;67.00;;;;;;;;5051407;28;8876;-72
2023/12/21 12:11:13;;;;;;;;;84.00;66.00;;;;;;;;5051057;28;8810;-71
2023/12/21 12:13:38;;;;;;;;;84.00;65.33;;;;;;;;5052849;28;8886;-73
2023/12/21 12:16:04;;;;;;;;;58.67;41.33;;;;;;;;5052511;28;8805;-72
2023/12/21 12:18:30;;;;;;;;;79.67;63.00;;;;;;;;5052133;28;8999;-72
2023/12/21 12:21:00;;;;;;;;;85.67;66.67;;;;;;;;5050820;28;8872;-71
2023/12/21 12:23:26;;;;;;;;;91.00;68.33;;;;;;;;5052837;28;9530;-72
2023/12/21 12:25:51;;;;;;;;;78.67;62.67;;;;;;;;5052726;28;8854;-75
2023/12/21 12:28:17;;;;;;;;;83.67;65.00;;;;;;;;5051159;28;10124;-73
2023/12/21 12:30:43;;;;;;;;;79.67;63.67;;;;;;;;5049440;28;10042;-72
2023/12/21 12:33:08;;;;;;;;;81.00;65.00;;;;;;;;5052252;28;8927;-72
2023/12/21 12:35:36;;;;;;;;;83.67;65.67;;;;;;;;5053991;28;8870;-72
2023/12/21 12:38:03;;;;;;;;;81.67;64.67;;;;;;;;5051887;28;8837;-73
2023/12/21 12:40:29;;;;;;;;;83.33;65.33;;;;;;;;5051564;28;8808;-73
2023/12/21 12:42:55;;;;;;;;;83.33;65.33;;;;;;;;5051295;28;8817;-72
2023/12/21 12:45:21;;;;;;;;;84.33;65.67;;;;;;;;5052009;28;8894;-71
2023/12/21 12:47:46;;;;;;;;;84.67;66.33;;;;;;;;5050349;28;8940;-73
2023/12/21 12:50:12;;;;;;;;;84.33;67.00;;;;;;;;5052341;28;8800;-72
2023/12/21 12:52:45;;;;;;;;;89.67;67.00;;;;;;;;5050332;28;8805;-77
2023/12/21 12:55:17;;;;;;;;;85.67;66.00;;;;;;;;5052368;28;8785;-73
2023/12/21 12:57:46;;;;;;;;;86.00;66.67;;;;;;;;5050334;28;8833;-74
2023/12/21 13:00:12;;;;;;;;;88.33;67.00;;;;;;;;5052880;28;10890;-74
2023/12/21 13:02:38;;;;;;;;;90.33;71.33;;;;;;;;5048736;28;9624;-73
2023/12/21 13:05:05;;;;;;;;;92.67;70.67;;;;;;;;5051968;28;8789;-73
2023/12/21 13:07:30;;;;;;;;;83.33;65.33;;;;;;;;5051737;28;8800;-74
2023/12/21 13:09:55;;;;;;;;;89.67;68.00;;;;;;;;5051752;28;9570;-73
2023/12/21 13:12:20;;;;;;;;;89.67;69.33;;;;;;;;5051869;28;8923;-73
2023/12/21 13:14:46;;;;;;;;;86.67;66.33;;;;;;;;5051591;28;8793;-73
2023/12/21 13:17:16;;;;;;;;;89.00;68.00;;;;;;;;5051285;28;8914;-74
2023/12/21 13:19:42;;;;;;;;;88.67;66.67;;;;;;;;5051707;28;8939;-73
2023/12/21 13:22:09;;;;;;;;;81.67;65.00;;;;;;;;5050297;28;8805;-72
2023/12/21 13:24:35;;;;;;;;;88.67;67.00;;;;;;;;5051532;28;8809;-72
2023/12/21 13:27:01;;;;;;;;;92.00;68.00;;;;;;;;5051433;28;9848;-71
2023/12/21 13:29:27;;;;;;;;;88.50;68.00;;;;;;;;5051200;28;8889;-72
2023/12/21 13:31:52;;;;;;;;;88.67;66.67;;;;;;;;5051222;28;8871;-72
2023/12/21 13:34:18;;;;;;;;;85.33;68.67;;;;;;;;5051378;28;8906;-72
2023/12/21 13:36:43;;;;;;;;;88.00;68.00;;;;;;;;5051250;28;8785;-72
2023/12/21 13:39:08;;;;;;;;;85.67;66.33;;;;;;;;5051062;28;8947;-71
2023/12/21 13:41:33;;;;;;;;;91.00;68.00;;;;;;;;5051198;28;9541;-72
2023/12/21 13:43:59;;;;;;;;;83.00;67.00;;;;;;;;5050901;28;8899;-73
2023/12/21 13:46:26;;;;;;;;;87.00;67.00;;;;;;;;5050958;28;8789;-72
2023/12/21 13:48:51;;;;;;;;;92.75;72.75;;;;;;;;5049763;28;8955;-71
2023/12/21 13:51:17;;;;;;;;;88.33;69.33;;;;;;;;5051082;28;8844;-71
2023/12/21 13:53:42;;;;;;;;;88.25;67.25;;;;;;;;5051066;28;8809;-72
2023/12/21 13:56:09;;;;;;;;;85.67;67.67;;;;;;;;5051076;28;9543;-72
2023/12/21 13:58:34;;;;;;;;;88.75;69.75;;;;;;;;5049206;28;8857;-73
2023/12/21 14:00:59;;;;;;;;;86.00;68.00;;;;;;;;5049448;28;8852;-71
2023/12/21 14:03:25;;;;;;;;;86.75;68.50;;;;;;;;5050624;28;8801;-72
2023/12/21 14:05:50;;;;;;;;;88.50;68.25;;;;;;;;5049454;28;8953;-72
2023/12/21 14:08:15;;;;;;;;;89.50;67.25;;;;;;;;5050767;28;8805;-71
2023/12/21 14:10:40;;;;;;;;;89.00;70.25;;;;;;;;5050803;28;8964;-72
2023/12/21 14:13:06;;;;;;;;;85.50;67.00;;;;;;;;5050365;28;8915;-73
2023/12/21 14:15:31;;;;;;;;;91.50;72.00;;;;;;;;5050517;28;8824;-72
2023/12/21 14:17:57;;;;;;;;;91.00;69.00;;;;;;;;5048549;28;8879;-69
2023/12/21 14:20:23;;;;;;;;;92.25;69.00;;;;;;;;5039961;28;8804;-70
2023/12/21 14:22:51;;;;;;;;;87.25;70.50;;;;;;;;5030792;28;8792;-71
2023/12/21 14:25:17;;;;;;;;;91.50;70.75;;;;;;;;5030642;28;8796;-71
2023/12/21 14:27:43;;;;;;;;;98.00;72.25;;;;;;;;5030701;28;9596;-71
2023/12/21 14:30:08;;;;;;;;;89.25;72.00;;;;;;;;5030379;28;9589;-71
2023/12/21 14:32:34;;;;;;;;;88.50;70.50;;;;;;;;5031142;28;8796;-72
2023/12/21 14:34:59;;;;;;;;;91.00;69.00;;;;;;;;5031870;28;9275;-73
2023/12/21 14:37:24;;;;;;;;;91.50;70.75;;;;;;;;5030104;28;8800;-70
2023/12/21 14:39:50;;;;;;;;;90.50;70.75;;;;;;;;5029274;28;8839;-69
2023/12/21 14:42:16;;;;;;;;;96.50;71.50;;;;;;;;5029282;28;8804;-71
2023/12/21 14:44:41;;;;;;;;;92.25;71.50;;;;;;;;5028844;28;8889;-72
2023/12/21 14:47:07;;;;;;;;;93.25;71.50;;;;;;;;5040077;28;8785;-72
2023/12/21 14:49:32;;;;;;;;;89.25;68.25;;;;;;;;5049600;28;8817;-73
2023/12/21 14:51:59;;;;;;;;;96.00;71.25;;;;;;;;5047842;28;8927;-72
2023/12/21 14:54:24;;;;;;;;;92.50;73.00;;;;;;;;5050146;28;8777;-73
2023/12/21 14:56:50;;;;;;;;;99.25;74.00;;;;;;;;5050205;28;8837;-74
2023/12/21 14:59:15;;;;;;;;;93.75;72.25;;;;;;;;5049869;28;9511;-73
2023/12/21 15:01:41;;;;;;;;;92.25;72.75;;;;;;;;5049812;28;8913;-75
2023/12/21 15:04:06;;;;;;;;;92.50;70.25;;;;;;;;5049962;28;8832;-74
2023/12/21 15:06:31;;;;;;;;;91.25;70.00;;;;;;;;5052346;28;8812;-72
2023/12/21 15:08:57;;;;;;;;;91.50;73.00;;;;;;;;5050282;28;8931;-73
2023/12/21 15:11:22;;;;;;;;;94.50;75.25;;;;;;;;5049753;28;9475;-74
2023/12/21 15:13:48;;;;;;;;;92.50;73.25;;;;;;;;5049797;28;8935;-73
2023/12/21 15:16:13;;;;;;;;;92.50;73.75;;;;;;;;5050035;28;8788;-76
2023/12/21 15:18:38;;;;;;;;;92.00;70.50;;;;;;;;5051299;28;8860;-74
2023/12/21 15:21:04;;;;;;;;;96.00;76.00;;;;;;;;5048356;28;9558;-74
2023/12/21 15:23:30;;;;;;;;;100.25;77.50;;;;;;;;5050246;28;8823;-74
2023/12/21 15:25:56;;;;;;;;;97.00;75.25;;;;;;;;5052409;28;8812;-73
2023/12/21 15:28:21;;;;;;;;;102.25;78.75;;;;;;;;5053302;28;8801;-73
2023/12/21 15:30:46;;;;;;;;;96.50;72.00;;;;;;;;5051953;28;8821;-74
2023/12/21 15:33:12;;;;;;;;;88.50;71.25;;;;;;;;5053529;28;8935;-72
2023/12/21 15:35:37;;;;;;;;;97.25;75.75;;;;;;;;5076550;28;8862;-73
2023/12/21 15:38:03;;;;;;;;;98.25;75.00;;;;;;;;5068825;28;8875;-71
2023/12/21 15:40:28;;;;;;;;;96.00;75.25;;;;;;;;5052401;28;9526;-72
2023/12/21 15:42:54;;;;;;;;;94.75;74.00;;;;;;;;5053233;28;8794;-72
2023/12/21 15:45:19;;;;;;;;;98.50;75.25;;;;;;;;5053336;28;8809;-72
2023/12/21 15:47:45;;;;;;;;;92.75;72.00;;;;;;;;5053040;28;8887;-74
2023/12/21 15:50:12;;;;;;;;;102.00;75.00;;;;;;;;5050725;28;8821;-72
2023/12/21 15:52:37;;;;;;;;;95.75;75.00;;;;;;;;5053263;28;8895;-71
2023/12/21 15:55:02;;;;;;;;;93.50;72.00;;;;;;;;5051714;28;8785;-71
2023/12/21 15:57:29;;;;;;;;;97.75;73.25;;;;;;;;5052075;28;8813;-71
2023/12/21 15:59:55;;;;;;;;;93.75;72.25;;;;;;;;5053246;28;8829;-71
2023/12/21 16:02:20;;;;;;;;;96.50;72.00;;;;;;;;5052993;28;8882;-71
2023/12/21 16:04:45;;;;;;;;;100.00;75.00;;;;;;;;5053002;28;8805;-72
2023/12/21 16:07:11;;;;;;;;;97.50;74.00;;;;;;;;5054734;28;8778;-71
2023/12/21 16:09:37;;;;;;;;;99.00;75.00;;;;;;;;5052449;28;8836;-70
2023/12/21 16:12:03;;;;;;;;;97.00;73.25;;;;;;;;5052457;28;9534;-71
2023/12/21 16:14:28;;;;;;;;;95.75;74.00;;;;;;;;5053047;28;8785;-70
2023/12/21 16:16:53;;;;;;;;;100.00;74.25;;;;;;;;5052964;28;8866;-70
2023/12/21 16:19:20;;;;;;;;;99.25;75.25;;;;;;;;5052619;28;8840;-70
2023/12/21 16:21:45;;;;;;;;;97.50;75.25;;;;;;;;5055072;28;8808;-72
2023/12/21 16:24:11;;;;;;;;;97.75;74.50;;;;;;;;5052753;28;8851;-70
2023/12/21 16:26:39;;;;;;;;;97.75;75.50;;;;;;;;5052468;28;8781;-71
2023/12/21 16:29:06;;;;;;;;;98.00;74.00;;;;;;;;5052729;28;8809;-70
2023/12/21 16:31:32;;;;;;;;;102.25;84.25;;;;;;;;5052700;28;8806;-70
2023/12/21 16:33:57;;;;;;;;;104.00;87.00;;;;;;;;5052463;28;8812;-70
2023/12/21 16:36:22;;;;;;;;;105.75;85.00;;;;;;;;5052422;28;9779;-70
2023/12/21 16:38:48;;;;;;;;;102.00;82.25;;;;;;;;5054412;28;8840;-70
2023/12/21 16:41:13;;;;;;;;;106.00;85.50;;;;;;;;5051099;28;8817;-70
2023/12/21 16:43:40;;;;;;;;;103.25;82.25;;;;;;;;5052329;28;8805;-70
2023/12/21 16:46:05;;;;;;;;;99.25;83.50;;;;;;;;5052330;28;8891;-70
2023/12/21 16:48:31;;;;;;;;;101.00;82.50;;;;;;;;5052128;28;8821;-70
2023/12/21 16:50:57;;;;;;;;;105.50;87.00;;;;;;;;5052379;28;8785;-71
2023/12/21 16:53:23;;;;;;;;;102.00;87.25;;;;;;;;5052992;28;8793;-72
2023/12/21 16:55:48;;;;;;;;;103.50;89.25;;;;;;;;5050869;28;8833;-71
2023/12/21 16:58:13;;;;;;;;;105.50;87.75;;;;;;;;5052253;28;8978;-71
2023/12/21 17:00:39;;;;;;;;;102.25;81.50;;;;;;;;5052003;28;9515;-71
2023/12/21 17:03:04;;;;;;;;;100.50;79.75;;;;;;;;5052027;28;8790;-71
2023/12/21 17:05:29;;;;;;;;;112.25;91.50;;;;;;;;5050542;28;8930;-72
2023/12/21 17:07:55;;;;;;;;;105.25;94.00;;;;;;;;5052497;28;8901;-70
2023/12/21 17:10:20;;;;;;;;;102.50;87.25;;;;;;;;5053964;28;8939;-73
2023/12/21 17:12:45;;;;;;;;;118.25;103.25;;;;;;;;5051671;28;8777;-73
2023/12/21 17:15:10;;;;;;;;;110.00;93.75;;;;;;;;5051623;28;8810;-73
2023/12/21 17:17:36;;;;;;;;;106.00;90.00;;;;;;;;5047790;28;8817;-74
2023/12/21 17:20:01;;;;;;;;;114.50;96.00;;;;;;;;5040510;28;8877;-73
2023/12/21 17:22:26;;;;;;;;;103.50;88.25;;;;;;;;5048435;28;9443;-73
2023/12/21 17:24:51;;;;;;;;;101.00;86.75;;;;;;;;5031465;28;8783;-74
2023/12/21 17:27:17;;;;;;;;;107.00;89.75;;;;;;;;5029398;28;8815;-74
2023/12/21 17:29:42;;;;;;;;;105.50;91.25;;;;;;;;5029593;28;8796;-88
2023/12/21 17:32:07;;;;;;;;;104.75;87.00;;;;;;;;5030682;28;9859;-73
2023/12/21 17:34:33;;;;;;;;;105.75;88.50;;;;;;;;5031114;28;8796;-70
2023/12/21 17:36:58;;;;;;;;;103.00;92.50;;;;;;;;5031552;28;8827;-70
2023/12/21 17:39:23;;;;;;;;;102.25;88.25;;;;;;;;5033570;28;8945;-71
2023/12/21 17:41:49;;;;;;;;;104.75;90.25;;;;;;;;5031702;28;8824;-70
2023/12/21 17:44:17;;;;;;;;;99.50;82.25;;;;;;;;5031506;28;8873;-69
2023/12/21 17:46:43;;;;;;;;;107.75;91.50;;;;;;;;5038068;28;8936;-71
2023/12/21 17:49:08;;;;;;;;;101.50;89.25;;;;;;;;5049515;28;8951;-71
2023/12/21 17:51:33;;;;;;;;;112.50;101.50;;;;;;;;5050598;28;8820;-73
2023/12/21 17:53:58;;;;;;;;;105.75;90.75;;;;;;;;5049335;28;8829;-73
2023/12/21 17:56:24;;;;;;;;;106.50;93.75;;;;;;;;5050511;28;8940;-73
2023/12/21 17:58:49;;;;;;;;;102.00;88.00;;;;;;;;5050705;28;8926;-74
2023/12/21 18:01:14;;;;;;;;;103.75;89.50;;;;;;;;5050506;28;9904;-71
2023/12/21 18:03:39;;;;;;;;;99.50;83.00;;;;;;;;5048350;28;8822;-71
2023/12/21 18:06:06;;;;;;;;;112.50;94.00;;;;;;;;5049193;28;8832;-71
2023/12/21 18:08:31;;;;;;;;;104.75;92.00;;;;;;;;5066112;28;8857;-69
2023/12/21 18:10:56;;;;;;;;;99.75;85.50;;;;;;;;5052797;28;8805;-69
2023/12/21 18:13:22;;;;;;;;;98.00;83.00;;;;;;;;5050754;28;8789;-70
2023/12/21 18:15:47;;;;;;;;;110.25;95.25;;;;;;;;5051239;28;8801;-69
2023/12/21 18:18:13;;;;;;;;;106.50;93.00;;;;;;;;5065759;28;8863;-70
2023/12/21 18:20:39;;;;;;;;;105.00;93.25;;;;;;;;5049275;28;8916;-72
2023/12/21 18:23:04;;;;;;;;;48.50;44.50;;;;;;;;5049283;28;8785;-77
2023/12/21 18:25:30;;;;;;;;;106.75;92.75;;;;;;;;5049204;28;8859;-71
2023/12/21 18:27:55;;;;;;;;;107.25;92.25;;;;;;;;5049936;28;8809;-71
2023/12/21 18:30:20;;;;;;;;;98.00;85.50;;;;;;;;5050114;28;8804;-72
2023/12/21 18:32:45;;;;;;;;;106.75;95.50;;;;;;;;5047490;28;8940;-72
2023/12/21 18:35:11;;;;;;;;;116.00;98.75;;;;;;;;5050010;28;8781;-73
2023/12/21 18:37:36;;;;;;;;;89.25;68.75;;;;;;;;5052566;28;8774;-73
2023/12/21 18:40:01;;;;;;;;;112.50;93.75;;;;;;;;5052365;28;8817;-68
2023/12/21 18:42:27;;;;;;;;;106.50;94.75;;;;;;;;5047844;28;8824;-71
2023/12/21 18:44:52;;;;;;;;;122.00;110.25;;;;;;;;5048840;28;8955;-72
2023/12/21 18:47:17;;;;;;;;;104.50;89.00;;;;;;;;5049127;28;8821;-72
2023/12/21 18:49:43;;;;;;;;;103.50;92.50;;;;;;;;5049897;28;8821;-76
2023/12/21 18:52:08;;;;;;;;;105.75;93.75;;;;;;;;5049448;28;8898;-74
2023/12/21 18:54:33;;;;;;;;;103.75;88.25;;;;;;;;5048516;28;9685;-72
2023/12/21 18:56:59;;;;;;;;;105.25;94.50;;;;;;;;5050407;28;8899;-71
2023/12/21 18:59:24;;;;;;;;;105.75;91.50;;;;;;;;5049036;28;8829;-72
2023/12/21 19:01:49;;;;;;;;;115.00;100.75;;;;;;;;5054327;28;8785;-73
2023/12/21 19:04:15;;;;;;;;;108.00;97.25;;;;;;;;5050890;28;8813;-72
2023/12/21 19:06:41;;;;;;;;;106.00;92.25;;;;;;;;5055722;28;8793;-74
2023/12/21 19:09:06;;;;;;;;;105.50;92.00;;;;;;;;5053444;28;8959;-73
2023/12/21 19:11:31;;;;;;;;;100.00;86.00;;;;;;;;5047229;28;8860;-73
2023/12/21 19:13:57;;;;;;;;;102.50;85.25;;;;;;;;5052042;28;8916;-73
2023/12/21 19:16:22;;;;;;;;;103.50;86.75;;;;;;;;5052541;28;8825;-72
2023/12/21 19:18:47;;;;;;;;;108.25;97.25;;;;;;;;5053854;28;8845;-70
2023/12/21 19:21:13;;;;;;;;;105.00;89.25;;;;;;;;5053541;28;8805;-70
2023/12/21 19:23:38;;;;;;;;;105.75;90.75;;;;;;;;5051449;28;8809;-71
2023/12/21 19:26:04;;;;;;;;;105.50;88.50;;;;;;;;5053803;28;8894;-71
2023/12/21 19:28:31;;;;;;;;;113.50;100.75;;;;;;;;5053875;28;8908;-71
2023/12/21 19:31:00;;;;;;;;;112.50;93.00;;;;;;;;5053309;28;8789;-71
2023/12/21 19:33:26;;;;;;;;;108.00;87.00;;;;;;;;5051464;28;8789;-71
2023/12/21 19:35:52;;;;;;;;;102.75;87.75;;;;;;;;5053365;28;8843;-70
2023/12/21 19:38:18;;;;;;;;;106.00;94.00;;;;;;;;5056292;28;8945;-70
2023/12/21 19:40:43;;;;;;;;;108.50;91.50;;;;;;;;5055167;28;8927;-71
2023/12/21 19:43:08;;;;;;;;;104.75;90.00;;;;;;;;5053567;28;8781;-70
2023/12/21 19:45:34;;;;;;;;;101.75;82.50;;;;;;;;5052258;28;8901;-70
2023/12/21 19:47:59;;;;;;;;;107.00;96.50;;;;;;;;5053148;28;8842;-72
2023/12/21 19:50:24;;;;;;;;;105.75;93.00;;;;;;;;5051813;28;8825;-71
2023/12/21 19:52:51;;;;;;;;;103.25;89.00;;;;;;;;5053326;28;8790;-72
2023/12/21 19:55:18;;;;;;;;;112.00;100.00;;;;;;;;5052481;28;8797;-79
2023/12/21 19:57:43;;;;;;;;;106.75;93.75;;;;;;;;5052751;28;9515;-78
2023/12/21 20:00:08;;;;;;;;;107.00;94.25;;;;;;;;5053079;28;8850;-78
